»·PEaware :: N9074Q KHMT-KRNM

N9074Q :: KHMT-KRNM

FLIGHT INFORMATION

Flight Status: Arrived
Operator: Privately registered:
United States
More flights under this callsign
Pilot: John N. (18861)
Aircraft: BEECH AIRCRAFT BONANZA
(BE36)
More flights by this aircraft type
Origin: KHMT Hemet-Ryan
United States
Destination: KRNM Ramona
United States
More flights between these airports :: More routes between these airports
Route: +PDZ V186 ROBNN V208 JLI
File this flight plan on PilotEdge
Remarks: REQUESTING RNAV (GPS) RWY 9, CIRCLE SOUTH TO LAND RWY 27
Altitude:
(Current/Filed)
5,000ft
Speed:
(Current/Filed)
160kts
Departed: 03-May-18 02:24 PM
Arrived: 03-May-18 03:02 PM
Distance/Time
Traveled:
42nm/0:38
Distance/Time
To Go:
Arrived

Flight Plot

Page will automatically refresh every two minutes.


Map Options




Map Legend


Flown Route
Filed Route
Departure Airport
Arrival Airport
Navaid (VOR, NDB)
Fix

Horizontal Profiles

Position Reports

Time Latitude Longitude Heading Altitude Ground
Speed
03-May-18 14:07 33.731031 -117.020085 327 1516ft 0kts
03-May-18 14:08 33.731032 -117.020086 327 1516ft 0kts
03-May-18 14:09 33.731032 -117.020086 327 1516ft 0kts
03-May-18 14:10 33.731033 -117.020086 327 1516ft 0kts
03-May-18 14:11 33.731033 -117.020087 327 1516ft 0kts
03-May-18 14:12 33.731033 -117.020087 327 1516ft 0kts
03-May-18 14:13 33.733273 -117.020519 318 1516ft 7kts
03-May-18 14:14 33.733349 -117.020612 314 1516ft 0kts
03-May-18 14:15 33.735133 -117.017268 57 1516ft 3kts
03-May-18 14:16 33.735142 -117.017251 60 1516ft 0kts
03-May-18 14:17 33.735142 -117.017250 60 1516ft 0kts
03-May-18 14:18 33.735563 -117.016295 2 1516ft 0kts
03-May-18 14:19 33.735564 -117.016295 2 1516ft 0kts
03-May-18 14:20 33.735565 -117.016295 2 1516ft 0kts
03-May-18 14:21 33.735565 -117.016295 2 1516ft 0kts
03-May-18 14:22 33.735566 -117.016295 2 1516ft 0kts
03-May-18 14:23 33.736001 -117.016573 285 1516ft 8kts
03-May-18 14:24 33.727626 -117.040035 258 1999ft 105kts
03-May-18 14:25 33.724263 -117.073925 292 3499ft 103kts
03-May-18 14:26 33.741815 -117.105579 298 4863ft 113kts
03-May-18 14:27 33.757565 -117.146684 299 5052ft 155kts
03-May-18 14:28 33.777390 -117.194604 298 5022ft 163kts
03-May-18 14:29 33.773538 -117.241417 197 5219ft 167kts
03-May-18 14:30 33.729609 -117.233044 165 5656ft 158kts
03-May-18 14:31 33.687649 -117.221354 164 5945ft 155kts
03-May-18 14:32 33.650766 -117.210844 163 6897ft 127kts
03-May-18 14:33 33.611321 -117.199598 164 7021ft 159kts
03-May-18 14:34 33.566668 -117.186911 164 7016ft 170kts
03-May-18 14:35 33.519362 -117.173465 164 7011ft 178kts
03-May-18 14:36 33.471386 -117.159905 165 7001ft 171kts
03-May-18 14:37 33.438793 -117.129036 117 7401ft 151kts
03-May-18 14:38 33.416712 -117.088103 119 7989ft 144kts
03-May-18 14:39 33.393432 -117.045412 120 8020ft 166kts
03-May-18 14:40 33.367370 -116.997810 120 8011ft 173kts
03-May-18 14:41 33.340948 -116.949642 120 8007ft 172kts
03-May-18 14:42 33.315065 -116.902498 120 7999ft 166kts
03-May-18 14:43 33.290165 -116.857145 120 8005ft 166kts
03-May-18 14:44 33.264476 -116.810443 120 8010ft 172kts
03-May-18 14:45 33.238132 -116.762642 120 7996ft 166kts
03-May-18 14:46 33.213018 -116.717079 120 8013ft 169kts
03-May-18 14:46 33.191024 -116.677268 120 7994ft 168kts
03-May-18 14:47 33.165675 -116.631394 120 8016ft 167kts
03-May-18 14:48 33.139015 -116.583981 124 7991ft 168kts
03-May-18 14:49 33.131152 -116.531845 88 7997ft 160kts
03-May-18 14:50 33.155735 -116.503466 327 7746ft 175kts
03-May-18 14:51 33.149781 -116.557404 245 7699ft 182kts
03-May-18 14:52 33.132405 -116.611513 251 7268ft 168kts
03-May-18 14:53 33.116141 -116.662429 250 6686ft 163kts
03-May-18 14:54 33.100362 -116.711956 250 6281ft 141kts
03-May-18 14:55 33.086785 -116.752845 249 5680ft 128kts
03-May-18 14:56 33.073126 -116.791651 247 4878ft 123kts
03-May-18 14:57 33.059524 -116.823584 239 3918ft 109kts
03-May-18 14:58 33.045721 -116.854092 246 3041ft 99kts
03-May-18 14:59 33.036430 -116.883799 257 2119ft 88kts
03-May-18 15:00 33.038418 -116.909906 280 1400ft 65kts
03-May-18 15:01 33.039579 -116.915009 20 1397ft 0kts
03-May-18 15:02 33.040554 -116.917317 4 1397ft 17kts
03-May-18 15:03 33.041052 -116.917254 345 1397ft 0kts
03-May-18 15:04 33.041053 -116.917255 345 1397ft 0kts
03-May-18 15:05 33.041053 -116.917255 345 1397ft 0kts
03-May-18 15:06 33.041054 -116.917255 345 1397ft 0kts
03-May-18 15:07 33.041054 -116.917255 345 1397ft 0kts

Navigation Log

Ident Type
Flight plan parsing failed, navigation log unavailable